createdAt,value
2018-04-01T00:03:40.661Z,44.03
2018-04-01T00:07:42.823Z,47.03
2018-04-01T00:11:44.983Z,54.07
2018-04-01T00:15:47.141Z,51.57
2018-04-01T00:19:49.327Z,46.67
2018-04-01T00:23:51.444Z,52.60
2018-04-01T00:27:53.590Z,54.27
2018-04-01T00:31:55.745Z,54.03
2018-04-01T00:35:58.665Z,59.57
2018-04-01T00:40:00.830Z,59.83
2018-04-01T00:44:02.979Z,57.27
2018-04-01T00:48:05.122Z,47.33
2018-04-01T00:52:07.273Z,54.63
2018-04-01T00:56:09.433Z,55.83
2018-04-01T01:00:12.350Z,54.23
2018-04-01T01:04:14.468Z,52.07
2018-04-01T01:08:17.393Z,55.90
2018-04-01T01:12:19.551Z,54.13
2018-04-01T01:16:21.720Z,50.87
2018-04-01T01:20:24.605Z,51.37
2018-04-01T01:24:27.522Z,60.43
2018-04-01T01:28:29.665Z,64.60
2018-04-01T01:32:31.818Z,55.27
2018-04-01T01:36:33.967Z,55.83
2018-04-01T01:40:36.124Z,53.57
2018-04-01T01:44:38.288Z,63.33
2018-04-01T01:48:41.203Z,62.73
2018-04-01T01:52:43.378Z,62.67
2018-04-01T01:56:45.517Z,63.40
2018-04-01T02:00:47.638Z,62.83
2018-04-01T02:04:49.781Z,70.50
2018-04-01T02:08:52.702Z,71.60
2018-04-01T02:12:54.839Z,68.87
2018-04-01T02:16:56.998Z,73.97
2018-04-01T02:20:59.129Z,70.33
2018-04-01T02:25:01.287Z,76.10
2018-04-01T02:29:04.211Z,77.17
2018-04-01T02:33:06.366Z,77.13
2018-04-01T02:37:08.535Z,75.43
2018-04-01T02:41:11.417Z,86.33
2018-04-01T02:45:13.606Z,97.73
2018-04-01T02:49:16.515Z,96.27
2018-04-01T02:53:18.675Z,100.57
2018-04-01T02:57:21.554Z,91.27
2018-04-01T03:01:23.717Z,90.53
2018-04-01T03:05:25.869Z,80.97
2018-04-01T03:09:28.784Z,76.60
2018-04-01T03:13:30.942Z,75.53
2018-04-01T03:17:33.055Z,71.60
2018-04-01T03:21:35.203Z,76.17
2018-04-01T03:25:37.349Z,77.43
2018-04-01T03:29:39.492Z,74.23
2018-04-01T03:33:41.602Z,78.37
2018-04-01T03:37:43.754Z,73.33
2018-04-01T03:41:46.670Z,74.70
2018-04-01T03:45:48.859Z,78.83
2018-04-01T03:49:51.034Z,68.43
2018-04-01T03:53:53.149Z,66.97
2018-04-01T03:57:55.302Z,62.80
2018-04-01T04:01:57.454Z,55.93
2018-04-01T04:05:59.627Z,53.60
2018-04-01T04:10:02.409Z,50.37
2018-04-01T04:14:05.294Z,47.20
2018-04-01T04:18:08.214Z,43.90
2018-04-01T04:22:10.368Z,46.43
2018-04-01T04:26:13.294Z,47.53
2018-04-01T04:30:15.433Z,47.10
2018-04-01T04:34:18.328Z,45.40
2018-04-01T04:38:20.501Z,48.40
2018-04-01T04:42:22.649Z,48.63
2018-04-01T04:46:24.798Z,47.30
2018-04-01T04:50:26.906Z,46.13
2018-04-01T04:54:29.060Z,53.37
2018-04-01T04:58:31.212Z,48.40
2018-04-01T05:02:33.354Z,40.17
2018-04-01T05:06:35.506Z,43.83
2018-04-01T05:10:37.619Z,41.63
2018-04-01T05:14:40.529Z,40.33
2018-04-01T05:18:42.674Z,46.60
2018-04-01T05:22:44.834Z,40.97
2018-04-01T05:26:46.982Z,44.60
2018-04-01T05:30:49.097Z,43.50
2018-04-01T05:34:51.239Z,46.53
2018-04-01T05:38:53.398Z,48.37
2018-04-01T05:42:55.562Z,39.03
2018-04-01T05:46:57.719Z,39.93
2018-04-01T05:51:00.604Z,31.23
2018-04-01T05:55:02.802Z,28.13
2018-04-01T05:59:05.724Z,24.80
2018-04-01T06:03:07.873Z,25.53
2018-04-01T06:07:10.890Z,20.63
2018-04-01T06:11:13.001Z,20.70
2018-04-01T06:15:15.151Z,24.37
2018-04-01T06:19:17.326Z,20.63
2018-04-01T06:23:19.476Z,19.83
2018-04-01T06:27:22.362Z,20.80
2018-04-01T06:31:25.264Z,23.73
2018-04-01T06:35:27.445Z,24.57
2018-04-01T06:39:30.360Z,20.40
2018-04-01T06:43:32.509Z,17.43
2018-04-01T06:47:35.386Z,20.23
2018-04-01T06:51:37.535Z,24.23
2018-04-01T06:59:56.306Z,26.00
2018-04-01T07:03:59.224Z,20.40
2018-04-01T07:08:01.342Z,17.17
2018-04-01T07:12:04.254Z,20.47
2018-04-01T07:16:06.428Z,20.27
2018-04-01T07:20:08.644Z,20.83
2018-04-01T07:24:10.792Z,21.50
2018-04-01T07:28:12.899Z,21.67
2018-04-01T07:32:15.045Z,21.57
2018-04-01T07:36:17.226Z,21.70
2018-04-01T07:40:19.378Z,21.60
2018-04-01T07:44:21.749Z,29.63
2018-04-01T07:48:23.858Z,29.70
2018-04-01T07:52:26.000Z,31.07
2018-04-01T07:56:28.143Z,32.70
2018-04-01T08:00:30.318Z,35.90
2018-04-01T08:04:32.465Z,34.37
2018-04-01T08:08:34.576Z,26.73
2018-04-01T08:12:36.730Z,24.23
2018-04-01T08:16:38.872Z,30.67
2018-04-01T08:20:41.777Z,34.40
2018-04-01T08:24:43.885Z,34.97
2018-04-01T08:28:46.029Z,36.27
2018-04-01T08:32:49.026Z,34.67
2018-04-01T08:36:51.248Z,39.83
2018-04-01T08:40:53.397Z,38.47
2018-04-01T08:44:55.509Z,33.40
2018-04-01T08:48:57.668Z,30.43
2018-04-01T08:52:59.821Z,30.37
2018-04-01T08:57:01.965Z,23.47
2018-04-01T09:01:04.107Z,22.73
2018-04-01T09:05:06.222Z,25.03
2018-04-01T09:09:09.143Z,25.17
2018-04-01T09:13:11.294Z,28.07
2018-04-01T09:17:14.201Z,26.57
2018-04-01T09:21:17.121Z,30.00
2018-04-01T09:25:19.242Z,31.63
2018-04-01T09:29:21.435Z,31.03
2018-04-01T09:33:24.352Z,31.93
2018-04-01T09:37:26.502Z,25.67
2018-04-01T09:41:28.654Z,23.70
2018-04-01T09:45:30.772Z,19.93
2018-04-01T09:49:33.689Z,17.17
2018-04-01T09:53:35.837Z,15.37
2018-04-01T09:57:38.757Z,16.73
2018-04-01T10:01:41.421Z,16.90
2018-04-01T10:05:44.105Z,19.63
2018-04-01T10:09:47.519Z,19.60
2018-04-01T10:13:50.930Z,18.90
2018-04-01T10:17:54.306Z,17.40
2018-04-01T10:21:56.951Z,15.53
2018-04-01T10:25:59.649Z,15.33
2018-04-01T10:30:03.049Z,15.83
2018-04-01T10:34:06.541Z,14.33
2018-04-01T10:38:09.209Z,13.67
2018-04-01T10:42:12.620Z,13.63
2018-04-01T10:46:16.033Z,13.37
2018-04-01T10:50:18.679Z,11.77
2018-04-01T10:54:20.851Z,14.50
2018-04-01T10:58:22.973Z,17.10
2018-04-01T11:02:25.167Z,23.30
2018-04-01T11:06:27.333Z,22.10
2018-04-01T11:10:30.106Z,31.97
2018-04-01T11:14:33.037Z,33.70
2018-04-01T11:18:35.149Z,34.57
2018-04-01T11:22:37.293Z,34.67
2018-04-01T11:26:39.448Z,30.57
2018-04-01T11:30:41.606Z,24.70
2018-04-01T11:34:44.480Z,24.40
2018-04-01T11:38:46.628Z,24.20
2018-04-01T11:42:48.776Z,23.10
2018-04-01T11:46:50.927Z,21.97
2018-04-01T11:50:53.854Z,20.37
2018-04-01T11:54:55.986Z,22.17
2018-04-01T11:58:58.153Z,23.40
2018-04-01T12:03:00.315Z,22.60
2018-04-01T12:07:02.471Z,24.73
2018-04-01T12:11:04.627Z,25.47
2018-04-01T12:15:06.758Z,22.90
2018-04-01T12:19:08.919Z,16.50
2018-04-01T12:23:11.069Z,18.53
2018-04-01T12:27:13.210Z,15.53
2018-04-01T12:31:16.128Z,18.63
2018-04-01T12:35:18.277Z,14.80
2018-04-01T12:39:20.430Z,16.50
2018-04-01T12:43:22.578Z,15.50
2018-04-01T12:47:24.730Z,14.97
2018-04-01T12:51:26.853Z,15.40
2018-04-01T12:55:29.005Z,16.50
2018-04-01T12:59:31.161Z,17.17
2018-04-01T13:03:33.309Z,15.47
2018-04-01T13:07:35.452Z,19.20
2018-04-01T13:11:37.563Z,17.63
2018-04-01T13:15:39.713Z,21.93
2018-04-01T13:19:41.862Z,16.17
2018-04-01T13:23:44.006Z,19.20
2018-04-01T13:27:46.922Z,27.10
2018-04-01T13:31:49.040Z,21.27
2018-04-01T13:35:51.186Z,22.60
2018-04-01T13:39:53.333Z,20.67
2018-04-01T13:43:56.244Z,18.63
2018-04-01T13:47:59.154Z,16.33
2018-04-01T13:52:01.298Z,16.27
2018-04-01T13:56:04.211Z,11.87
2018-04-01T14:00:06.351Z,14.20
2018-04-01T14:04:08.502Z,17.20
2018-04-01T14:08:10.649Z,13.37
2018-04-01T14:12:12.758Z,16.03
2018-04-01T14:16:14.908Z,13.63
2018-04-01T14:20:17.056Z,14.03
2018-04-01T14:24:19.973Z,15.23
2018-04-01T14:28:22.088Z,16.97
2018-04-01T14:32:24.240Z,14.23
2018-04-01T14:36:26.383Z,14.77
2018-04-01T14:40:29.293Z,11.73
2018-04-01T14:44:31.437Z,15.40
2018-04-01T14:48:34.317Z,14.33
2018-04-01T14:52:36.471Z,16.30
2018-04-01T14:56:38.715Z,12.30
2018-04-01T15:00:40.866Z,14.07
2018-04-01T15:04:43.783Z,15.53
2018-04-01T15:08:45.889Z,13.87
2018-04-01T15:12:48.038Z,14.73
2018-04-01T15:16:50.173Z,17.37
2018-04-01T15:20:53.033Z,17.67
2018-04-01T15:24:55.388Z,15.67
2018-04-01T15:28:57.507Z,15.73
2018-04-01T15:32:59.654Z,17.03
2018-04-01T15:37:01.810Z,11.70
2018-04-01T15:41:04.876Z,14.53
2018-04-01T15:45:07.050Z,15.50
2018-04-01T15:49:09.195Z,16.47
2018-04-01T15:53:11.456Z,15.03
2018-04-01T15:57:13.597Z,11.70
2018-04-01T16:01:16.509Z,13.07
2018-04-01T16:05:19.905Z,14.63
2018-04-01T16:09:23.396Z,14.73
2018-04-01T16:13:25.555Z,15.63
2018-04-01T16:17:27.800Z,16.53
2018-04-01T16:21:29.953Z,15.57
2018-04-01T16:25:32.835Z,21.80
2018-04-01T16:29:34.982Z,14.87
2018-04-01T16:33:37.134Z,21.60
2018-04-01T16:37:40.051Z,17.67
2018-04-01T16:41:42.197Z,19.10
2018-04-01T16:45:44.313Z,19.53
2018-04-01T16:49:46.461Z,17.73
2018-04-01T16:53:48.646Z,20.13
2018-04-01T16:57:50.790Z,20.73
2018-04-01T17:01:53.702Z,17.20
2018-04-01T17:05:55.845Z,19.67
2018-04-01T17:09:58.762Z,22.67
2018-04-01T17:14:00.905Z,24.17
2018-04-01T17:18:03.053Z,21.00
2018-04-01T17:22:05.197Z,17.77
2018-04-01T17:26:07.385Z,20.70
2018-04-01T17:30:10.305Z,18.17
2018-04-01T17:34:12.457Z,25.93
2018-04-01T17:38:14.611Z,26.30
2018-04-01T17:42:16.721Z,30.90
2018-04-01T17:46:18.873Z,27.73
2018-04-01T17:50:21.026Z,30.87
2018-04-01T17:54:23.980Z,26.00
2018-04-01T17:58:26.148Z,26.13
2018-04-01T18:02:28.434Z,26.83
2018-04-01T18:06:30.581Z,28.20
2018-04-01T18:10:32.729Z,30.07
2018-04-01T18:14:35.642Z,37.23
2018-04-01T18:18:38.555Z,54.47
2018-04-01T18:22:40.665Z,80.87
2018-04-01T18:26:42.818Z,157.20
2018-04-01T18:30:44.978Z,133.87
2018-04-01T18:34:47.161Z,91.73
2018-04-01T18:38:49.311Z,71.00
2018-04-01T18:42:52.193Z,95.30
2018-04-01T18:46:54.337Z,74.73
2018-04-01T18:50:56.484Z,86.57
2018-04-01T18:54:59.692Z,49.07
2018-04-01T18:59:02.315Z,67.40
2018-04-01T19:03:04.467Z,47.63
2018-04-01T19:07:06.620Z,60.47
2018-04-01T19:11:08.772Z,68.37
2018-04-01T19:15:11.682Z,79.60
2018-04-01T19:19:14.294Z,70.57
2018-04-01T19:23:16.957Z,55.60
2018-04-01T19:27:19.592Z,72.03
2018-04-01T19:31:22.234Z,57.90
2018-04-01T19:35:24.894Z,33.67
2018-04-01T19:39:27.650Z,28.00
2018-04-01T19:43:30.415Z,25.87
2018-04-01T19:47:33.045Z,29.93
2018-04-01T19:51:35.798Z,30.53
2018-04-01T19:55:38.438Z,28.83
2018-04-01T19:59:41.039Z,30.37
2018-04-01T20:03:44.446Z,43.90
2018-04-01T20:07:47.848Z,52.00
2018-04-01T20:11:51.258Z,60.97
2018-04-01T20:15:54.681Z,61.70
2018-04-01T20:19:58.092Z,60.83
2018-04-01T20:24:00.737Z,46.97
2018-04-01T20:28:03.455Z,47.17
2018-04-01T20:32:06.874Z,46.63
2018-04-01T20:36:09.573Z,41.10
2018-04-01T20:40:12.245Z,43.03
2018-04-01T20:44:14.890Z,47.93
2018-04-01T20:48:17.532Z,45.00
2018-04-01T20:52:20.165Z,51.50
2018-04-01T20:56:22.769Z,55.07
2018-04-01T21:00:25.404Z,56.43
2018-04-01T21:04:28.098Z,63.63
2018-04-01T21:08:30.794Z,61.53
2018-04-01T21:12:33.468Z,69.23
2018-04-01T21:16:36.106Z,75.00
2018-04-01T21:20:38.806Z,73.47
2018-04-01T21:24:41.444Z,73.63
2018-04-01T21:28:44.081Z,76.40
2018-04-01T21:32:46.690Z,78.93
2018-04-01T21:36:50.097Z,82.60
2018-04-01T21:40:53.509Z,81.13
2018-04-01T21:44:56.924Z,78.23
2018-04-01T21:48:59.577Z,89.73
2018-04-01T21:53:03.026Z,69.73
2018-04-01T21:57:05.729Z,80.10
2018-04-01T22:01:08.378Z,79.70
2018-04-01T22:05:11.789Z,79.63
2018-04-01T22:09:15.198Z,77.60
2018-04-01T22:13:18.572Z,79.83
2018-04-01T22:17:21.216Z,72.87
2018-04-01T22:21:23.872Z,68.60
2018-04-01T22:25:27.282Z,67.40
2018-04-01T22:29:30.691Z,62.23
2018-04-01T22:33:34.121Z,69.33
2018-04-01T22:37:36.758Z,66.40
2018-04-01T22:41:40.192Z,68.27
2018-04-01T22:45:43.604Z,66.50
2018-04-01T22:49:46.977Z,82.23
2018-04-01T22:53:49.618Z,86.30
2018-04-01T22:57:52.277Z,82.67
2018-04-01T23:01:55.741Z,83.43
2018-04-01T23:05:58.385Z,84.20
2018-04-01T23:10:00.997Z,83.43
2018-04-01T23:14:03.714Z,89.00
2018-04-01T23:18:06.359Z,79.83
2018-04-01T23:22:08.998Z,76.43
2018-04-01T23:26:11.693Z,79.20
2018-04-01T23:30:14.298Z,78.47
2018-04-01T23:34:17.701Z,77.53
2018-04-01T23:38:20.394Z,74.03
2018-04-01T23:42:23.079Z,78.30
2018-04-01T23:46:25.726Z,80.23
2018-04-01T23:50:28.338Z,77.43
2018-04-01T23:54:31.033Z,87.13
2018-04-01T23:58:33.728Z,81.03
